Time;durP1;ratioP1;P1;durP2;ratioP2;P2;SDS_P1;SDS_P2;PMS_P1;PMS_P2;Temp;Humidity;BMP_temperature;BMP_pressure;BME280_temperature;BME280_humidity;BME280_pressure;Samples;Min_cycle;Max_cycle;Signal;HPM_P1;HPM_P2
2022/10/14 00:02:16;;;;;;;70.12;40.48;;;;;;;6.98;99.00;99392.63;4001268;87;21141;-82
2022/10/14 00:08:17;;;;;;;68.92;41.35;;;;;;;6.96;98.62;99383.45;4000349;87;21042;-83
2022/10/14 00:14:20;;;;;;;70.92;40.33;;;;;;;6.90;98.95;99379.38;3996888;87;21013;-84
2022/10/14 00:20:23;;;;;;;69.70;41.90;;;;;;;6.87;99.10;99379.25;3992350;87;21037;-82
2022/10/14 00:26:29;;;;;;;70.67;43.13;;;;;;;6.89;99.33;99374.27;3988998;86;21073;-82
2022/10/14 00:32:31;;;;;;;67.82;39.18;;;;;;;6.89;99.47;99376.98;3937575;89;21057;-83
2022/10/14 00:38:34;;;;;;;71.85;43.75;;;;;;;6.85;99.22;99376.06;4027861;85;22309;-82
2022/10/14 00:44:46;;;;;;;72.30;41.08;;;;;;;6.83;99.76;99372.33;4134993;83;21059;-83
2022/10/14 00:50:53;;;;;;;80.00;41.60;;;;;;;6.92;100.00;99364.06;4131612;85;21079;-83
2022/10/14 00:56:54;;;;;;;;;;;;;;;6.89;99.66;99361.44;4131239;85;21062;-83
2022/10/14 01:02:57;;;;;;;67.42;39.23;;;;;;;6.91;100.00;99357.81;4122108;85;20226;-82
2022/10/14 01:09:24;;;;;;;73.40;40.50;;;;;;;6.88;100.00;99355.78;4112759;85;21064;-83
2022/10/14 01:22:25;;;;;;;68.65;39.67;;;;;;;7.06;100.00;99346.80;4484899;77;22947;-84
2022/10/14 01:28:58;;;;;;;65.97;39.60;;;;;;;7.02;100.00;99348.05;4412994;78;21030;-84
2022/10/14 01:35:19;;;;;;;64.03;36.65;;;;;;;7.02;100.00;99345.88;4411624;78;21945;-83
2022/10/14 01:41:27;;;;;;;69.60;39.92;;;;;;;7.02;100.00;99342.61;4388181;78;21018;-83
2022/10/14 01:47:32;;;;;;;71.35;41.02;;;;;;;7.00;100.00;99337.29;4421921;78;20999;-84
2022/10/14 01:53:46;;;;;;;69.30;38.83;;;;;;;7.03;100.00;99329.20;4376127;79;20974;-83
2022/10/14 01:59:48;;;;;;;71.50;40.05;;;;;;;6.94;100.00;99329.14;4410614;78;20995;-83
2022/10/14 02:06:01;;;;;;;71.47;38.60;;;;;;;7.01;100.00;99332.86;4411845;78;21417;-83
2022/10/14 02:12:27;;;;;;;68.12;37.45;;;;;;;6.99;100.00;99327.52;4418665;78;21077;-83
2022/10/14 02:19:13;;;;;;;62.00;37.98;;;;;;;6.99;100.00;99323.44;4408220;78;21497;-83
2022/10/14 02:25:27;;;;;;;69.32;39.08;;;;;;;6.93;100.00;99314.73;4409649;78;22032;-83
2022/10/14 02:31:31;;;;;;;64.70;38.42;;;;;;;6.95;100.00;99306.22;4387863;79;21054;-83
2022/10/14 02:37:33;;;;;;;58.17;35.83;;;;;;;6.94;100.00;99300.56;4371274;79;21023;-83
2022/10/14 02:43:35;;;;;;;57.60;35.73;;;;;;;6.93;100.00;99301.68;4365627;79;21540;-83
2022/10/14 02:49:38;;;;;;;58.65;35.48;;;;;;;6.96;100.00;99301.80;4388869;79;21066;-83
2022/10/14 02:55:42;;;;;;;54.13;35.52;;;;;;;6.96;100.00;99296.91;4379482;79;21018;-83
2022/10/14 03:01:43;;;;;;;58.95;33.13;;;;;;;6.99;100.00;99296.22;4373125;79;21003;-83
2022/10/14 03:07:45;;;;;;;57.05;35.05;;;;;;;7.04;100.00;99291.91;4304535;80;21929;-83
2022/10/14 03:13:47;;;;;;;66.33;37.15;;;;;;;7.07;100.00;99294.73;4246382;82;21041;-84
2022/10/14 03:19:49;;;;;;;62.40;34.88;;;;;;;7.08;100.00;99287.38;4277169;80;21084;-83
2022/10/14 03:25:52;;;;;;;57.03;34.75;;;;;;;7.10;100.00;99287.23;4263746;82;21909;-84
2022/10/14 03:31:55;;;;;;;56.83;36.08;;;;;;;7.11;100.00;99293.48;4259608;82;21071;-83
2022/10/14 03:38:07;;;;;;;58.80;36.23;;;;;;;7.09;100.00;99291.11;4266169;81;21148;-83
2022/10/14 03:44:10;;;;;;;64.07;37.88;;;;;;;7.06;100.00;99285.55;4244157;81;47493;-83
2022/10/14 03:50:12;;;;;;;58.23;34.92;;;;;;;7.01;100.00;99283.06;4057785;86;21600;-84
2022/10/14 03:56:22;;;;;;;52.70;32.70;;;;;;;7.01;100.00;99275.70;4035775;86;21120;-83
2022/10/14 04:02:25;;;;;;;59.70;34.13;;;;;;;7.06;100.00;99270.58;4036774;86;21582;-83
2022/10/14 04:08:29;;;;;;;54.00;33.73;;;;;;;7.12;100.00;99269.20;4042118;86;21052;-83
2022/10/14 04:14:32;;;;;;;51.10;32.80;;;;;;;7.14;100.00;99268.30;4031775;86;21067;-83
2022/10/14 04:20:34;;;;;;;50.63;31.95;;;;;;;7.17;100.00;99269.73;4065239;85;21961;-83
2022/10/14 04:26:36;;;;;;;55.60;31.45;;;;;;;7.15;100.00;99258.42;4067210;85;21144;-83
2022/10/14 04:32:38;;;;;;;59.75;34.88;;;;;;;7.20;100.00;99264.19;4063153;85;21119;-84
2022/10/14 04:38:42;;;;;;;58.13;35.03;;;;;;;7.13;100.00;99251.72;4073521;85;21099;-84
2022/10/14 04:44:44;;;;;;;56.05;34.53;;;;;;;7.13;100.00;99253.87;4063559;85;21190;-83
2022/10/14 04:50:52;;;;;;;58.02;34.13;;;;;;;7.12;100.00;99245.50;4070861;85;21857;-83
2022/10/14 04:56:59;;;;;;;57.90;34.70;;;;;;;7.15;100.00;99242.08;4067854;85;21555;-84
2022/10/14 05:03:01;;;;;;;64.10;36.00;;;;;;;7.14;100.00;99248.64;4050576;85;21409;-83
2022/10/14 05:09:05;;;;;;;61.45;35.30;;;;;;;7.19;100.00;99247.61;3999708;87;21075;-86
2022/10/14 05:15:08;;;;;;;58.23;36.13;;;;;;;7.19;100.00;99247.05;4067157;85;21069;-83
2022/10/14 05:21:14;;;;;;;62.55;35.73;;;;;;;7.23;100.00;99247.95;4075786;85;22080;-83
2022/10/14 05:27:20;;;;;;;63.20;37.40;;;;;;;7.29;100.00;99236.23;4071268;85;21073;-83
2022/10/14 05:33:22;;;;;;;57.48;34.33;;;;;;;7.32;100.00;99234.17;4058538;85;21115;-83
2022/10/14 05:39:24;;;;;;;74.20;44.95;;;;;;;7.36;100.00;99247.34;4084592;85;21069;-83
2022/10/14 05:45:26;;;;;;;66.17;37.13;;;;;;;7.40;100.00;99249.02;4080605;85;21167;-83
2022/10/14 05:51:27;;;;;;;62.50;39.08;;;;;;;7.41;100.00;99233.44;4085394;85;21086;-84
2022/10/14 05:57:32;;;;;;;64.72;38.23;;;;;;;7.41;100.00;99247.06;4082969;85;21024;-83
2022/10/14 06:03:34;;;;;;;61.37;36.50;;;;;;;7.39;100.00;99230.30;4083541;85;21994;-84
2022/10/14 06:09:37;;;;;;;56.68;35.80;;;;;;;7.43;100.00;99240.14;4082093;85;21474;-82
2022/10/14 06:15:38;;;;;;;57.33;34.05;;;;;;;7.54;100.00;99230.89;4086314;85;21904;-84
2022/10/14 06:21:40;;;;;;;59.75;35.68;;;;;;;7.62;100.00;99238.91;4064327;85;21855;-83
2022/10/14 06:27:41;;;;;;;57.00;34.60;;;;;;;7.91;100.00;99239.85;4056621;86;21581;-83
2022/10/14 06:33:43;;;;;;;64.87;35.48;;;;;;;8.27;100.00;99249.72;4059841;85;21026;-84
2022/10/14 06:39:45;;;;;;;56.50;33.42;;;;;;;8.58;100.00;99244.22;4069317;85;21062;-84
2022/10/14 06:45:48;;;;;;;62.27;34.27;;;;;;;8.77;100.00;99245.63;4061540;86;21058;-84
2022/10/14 06:51:50;;;;;;;66.55;36.85;;;;;;;8.84;100.00;99245.80;4055226;85;21026;-85
2022/10/14 06:57:51;;;;;;;59.63;35.90;;;;;;;8.97;100.00;99255.42;4051101;85;22059;-84
2022/10/14 07:03:52;;;;;;;60.50;36.15;;;;;;;9.04;100.00;99247.39;4056617;86;21074;-84
2022/10/14 07:09:54;;;;;;;57.03;34.03;;;;;;;9.13;100.00;99249.33;4035287;87;21064;-84
2022/10/14 07:15:56;;;;;;;58.25;35.28;;;;;;;9.38;100.00;99243.79;4067884;87;21015;-84
2022/10/14 07:21:57;;;;;;;57.78;35.33;;;;;;;9.85;100.00;99241.36;4076315;85;21053;-84
2022/10/14 07:27:59;;;;;;;50.38;31.65;;;;;;;10.24;100.00;99246.94;4081361;85;21058;-84
2022/10/14 07:34:01;;;;;;;52.85;34.63;;;;;;;10.40;100.00;99240.16;4083014;85;21119;-84
2022/10/14 07:40:03;;;;;;;56.92;33.33;;;;;;;10.58;100.00;99237.70;4091936;85;21081;-84
2022/10/14 07:46:06;;;;;;;55.25;33.33;;;;;;;10.78;100.00;99235.05;4095463;85;21037;-84
2022/10/14 07:52:08;;;;;;;52.60;32.65;;;;;;;10.80;100.00;99241.75;4090187;85;21103;-84
2022/10/14 07:58:09;;;;;;;50.58;31.23;;;;;;;10.84;100.00;99234.93;4083006;85;21048;-85
2022/10/14 08:04:11;;;;;;;56.35;34.73;;;;;;;10.92;100.00;99237.98;4082345;85;21565;-84
2022/10/14 08:10:12;;;;;;;54.53;32.25;;;;;;;11.00;100.00;99239.66;4079973;85;21952;-84
2022/10/14 08:16:23;;;;;;;55.70;32.98;;;;;;;11.09;100.00;99236.84;4066716;85;21061;-84
2022/10/14 08:22:24;;;;;;;60.00;32.53;;;;;;;11.27;100.00;99229.42;4055002;85;21304;-84
2022/10/14 08:28:26;;;;;;;53.30;32.48;;;;;;;11.47;100.00;99230.83;4048673;86;21610;-84
2022/10/14 08:34:32;;;;;;;75.28;42.75;;;;;;;11.59;100.00;99230.59;4050114;85;21700;-84
2022/10/14 08:40:53;;;;;;;56.20;34.27;;;;;;;11.75;100.00;99227.84;3981450;87;21492;-83
2022/10/14 08:47:02;;;;;;;55.35;32.33;;;;;;;12.00;100.00;99237.67;4051398;86;21166;-82
2022/10/14 08:53:13;;;;;;;51.02;31.73;;;;;;;12.14;100.00;99236.42;4048230;85;21096;-83
2022/10/14 08:59:18;;;;;;;57.27;33.02;;;;;;;12.28;100.00;99233.80;4047171;85;20973;-82
2022/10/14 09:05:24;;;;;;;50.55;31.45;;;;;;;12.43;100.00;99226.66;4050229;85;21463;-83
2022/10/14 09:11:28;;;;;;;49.42;32.08;;;;;;;12.62;100.00;99227.77;4054331;85;21091;-83
2022/10/14 09:17:34;;;;;;;48.63;30.57;;;;;;;13.01;100.00;99228.05;4048105;86;21025;-83
2022/10/14 09:23:36;;;;;;;36.50;22.47;;;;;;;13.28;100.00;99225.20;4052533;85;21072;-83
2022/10/14 09:29:56;;;;;;;56.15;31.33;;;;;;;13.57;100.00;99220.02;4045265;86;21085;-83
2022/10/14 09:35:57;;;;;;;53.68;30.02;;;;;;;13.84;100.00;99230.09;4040217;85;21940;-84
2022/10/14 09:41:59;;;;;;;50.17;30.15;;;;;;;14.02;100.00;99223.43;4050382;85;21049;-83
2022/10/14 09:48:06;;;;;;;48.00;29.48;;;;;;;14.13;100.00;99217.34;3988625;87;21043;-83
2022/10/14 09:54:19;;;;;;;50.10;29.92;;;;;;;14.25;100.00;99216.18;3960875;88;21035;-82
2022/10/14 10:00:28;;;;;;;55.73;32.03;;;;;;;14.31;100.00;99220.14;3918745;89;21343;-83
2022/10/14 10:06:29;;;;;;;56.70;29.72;;;;;;;14.47;100.00;99210.86;4047801;86;21138;-83
2022/10/14 10:12:34;;;;;;;41.80;27.37;;;;;;;14.74;99.96;99211.20;4076657;86;21108;-82
2022/10/14 10:18:35;;;;;;;50.50;27.25;;;;;;;14.95;99.47;99208.41;4068774;86;21059;-83
2022/10/14 10:24:37;;;;;;;44.80;25.37;;;;;;;15.04;98.60;99211.52;4055915;86;21048;-84
2022/10/14 10:31:11;;;;;;;38.45;24.15;;;;;;;15.06;98.15;99203.65;4053360;87;21056;-84
2022/10/14 10:37:20;;;;;;;35.83;22.70;;;;;;;15.14;97.86;99205.20;4054688;86;21552;-84
2022/10/14 10:43:30;;;;;;;;;;;;;;;15.26;97.34;99193.72;4060153;86;22046;-84
2022/10/14 10:50:12;;;;;;;33.73;22.05;;;;;;;15.39;96.24;99197.02;4058487;86;20210;-85
2022/10/14 10:56:39;;;;;;;35.48;21.23;;;;;;;15.49;96.71;99187.91;4056587;86;21978;-84
2022/10/14 11:02:54;;;;;;;27.13;18.73;;;;;;;15.58;96.22;99179.20;4055020;86;21163;-83
2022/10/14 11:15:44;;;;;;;32.80;19.10;;;;;;;15.83;95.48;99179.03;3878310;90;21157;-83
2022/10/14 11:21:56;;;;;;;32.35;18.67;;;;;;;15.98;95.19;99171.63;4057641;86;22067;-84
2022/10/14 11:28:12;;;;;;;27.90;18.50;;;;;;;16.14;94.70;99169.13;4058588;86;22075;-84
2022/10/14 11:34:36;;;;;;;27.30;17.52;;;;;;;16.16;93.82;99166.72;4053360;86;21040;-84
2022/10/14 11:41:17;;;;;;;33.85;18.23;;;;;;;16.09;93.03;99166.00;4061383;86;21068;-83
2022/10/14 11:47:32;;;;;;;27.35;17.17;;;;;;;15.95;92.77;99175.20;4178961;82;32583;-84
2022/10/14 11:53:58;;;;;;;23.35;17.37;;;;;;;15.79;92.46;99165.25;4194560;83;21050;-84
2022/10/14 12:00:28;;;;;;;25.80;16.45;;;;;;;15.75;92.61;99163.13;4191084;83;21023;-83
2022/10/14 12:06:54;;;;;;;;;;;;;;;15.69;92.76;99164.13;4199359;84;21027;-84
2022/10/14 12:12:57;;;;;;;27.98;17.80;;;;;;;15.68;92.58;99151.36;4185038;83;20152;-85
2022/10/14 12:18:59;;;;;;;28.17;15.98;;;;;;;15.57;92.92;99147.27;4147248;83;33672;-84
2022/10/14 12:25:16;;;;;;;26.80;16.23;;;;;;;15.54;92.68;99148.08;4068698;86;21100;-84
2022/10/14 12:31:38;;;;;;;19.90;15.43;;;;;;;15.43;92.75;99147.35;4075079;86;21038;-84
2022/10/14 12:37:44;;;;;;;24.30;16.52;;;;;;;15.38;92.90;99145.02;4073722;86;21820;-86
2022/10/14 12:44:03;;;;;;;26.90;18.10;;;;;;;15.36;92.78;99143.24;4070704;86;21611;-84
2022/10/14 12:50:19;;;;;;;29.23;16.57;;;;;;;15.34;92.66;99153.30;4063835;85;32183;-84
2022/10/14 12:56:35;;;;;;;28.40;18.20;;;;;;;15.19;92.71;99154.54;4034797;84;116386;-84
2022/10/14 13:02:45;;;;;;;27.37;18.07;;;;;;;15.14;92.95;99157.70;4111107;85;21127;-84
2022/10/14 13:09:15;;;;;;;28.60;17.62;;;;;;;15.01;93.03;99157.19;4235256;84;20935;-84
2022/10/14 13:15:34;;;;;;;27.52;17.77;;;;;;;14.77;93.45;99157.47;4179864;84;21838;-83
2022/10/14 13:21:45;;;;;;;31.80;21.10;;;;;;;14.67;93.95;99157.51;4177772;82;21010;-84
2022/10/14 13:28:04;;;;;;;29.95;20.55;;;;;;;14.83;94.38;99139.95;4187833;84;21036;-84
2022/10/14 13:34:44;;;;;;;35.98;23.25;;;;;;;15.10;93.35;99142.38;4190758;84;20976;-84
2022/10/14 13:41:10;;;;;;;34.73;21.80;;;;;;;15.25;92.63;99134.24;4233382;84;21046;-84
2022/10/14 13:47:30;;;;;;;32.50;22.13;;;;;;;15.24;91.83;99127.92;4172170;84;21030;-84
2022/10/14 13:53:32;;;;;;;28.07;20.10;;;;;;;15.23;92.09;99127.75;4131458;84;28775;-85
2022/10/14 13:59:40;;;;;;;30.08;21.33;;;;;;;15.30;92.01;99125.55;3982755;88;21730;-84
2022/10/14 14:05:42;;;;;;;33.20;21.87;;;;;;;15.37;91.93;99121.36;3991394;88;21043;-84
2022/10/14 14:11:46;;;;;;;34.27;22.85;;;;;;;15.41;91.57;99127.06;3987469;88;21430;-85
2022/10/14 14:17:48;;;;;;;30.92;20.40;;;;;;;15.42;91.69;99123.73;3997200;88;21036;-84
2022/10/14 14:23:57;;;;;;;38.75;22.60;;;;;;;15.39;91.70;99117.64;4014883;87;21088;-84
2022/10/14 14:30:01;;;;;;;30.32;21.07;;;;;;;15.37;91.91;99116.63;4009576;86;21116;-85
2022/10/14 14:36:08;;;;;;;34.78;22.27;;;;;;;15.36;91.58;99106.00;4011445;86;21077;-84
2022/10/14 14:42:10;;;;;;;33.40;19.67;;;;;;;15.31;91.73;99114.70;4040054;87;21071;-84
2022/10/14 14:48:14;;;;;;;32.45;21.07;;;;;;;15.21;91.73;99106.67;4022778;87;21541;-84
2022/10/14 14:54:19;;;;;;;30.48;21.37;;;;;;;15.15;91.85;99110.25;4013701;87;21164;-84
2022/10/14 15:00:21;;;;;;;29.82;21.00;;;;;;;15.09;92.14;99111.86;4030539;87;21071;-84
2022/10/14 15:06:24;;;;;;;32.08;23.32;;;;;;;15.03;92.21;99107.95;4026675;87;21107;-84
2022/10/14 15:12:33;;;;;;;32.98;23.27;;;;;;;14.92;92.61;99106.64;4041183;87;20988;-84
2022/10/14 15:18:36;;;;;;;34.53;24.12;;;;;;;14.83;93.00;99105.50;4013951;87;21066;-84
2022/10/14 15:25:06;;;;;;;39.67;25.68;;;;;;;14.65;93.28;99094.54;4023547;87;21051;-84
2022/10/14 15:31:15;;;;;;;48.33;30.05;;;;;;;14.55;93.64;99098.72;4018183;87;21068;-84
2022/10/14 15:37:16;;;;;;;54.88;33.25;;;;;;;14.39;93.89;99096.98;4083499;87;21544;-84
2022/10/14 15:43:26;;;;;;;53.60;33.85;;;;;;;14.19;94.17;99093.83;4009371;87;21968;-84
2022/10/14 15:49:36;;;;;;;42.05;28.95;;;;;;;13.93;94.60;99093.69;4005075;86;21004;-84
2022/10/14 15:55:38;;;;;;;;;;;;;;;13.75;94.79;99099.77;4024511;86;21039;-84
2022/10/14 16:01:41;;;;;;;39.13;25.20;;;;;;;13.58;95.37;99099.77;4019104;87;20144;-83
2022/10/14 16:07:44;;;;;;;40.67;23.85;;;;;;;13.36;95.43;99095.44;4009235;87;21085;-84
2022/10/14 16:13:45;;;;;;;41.65;26.10;;;;;;;13.13;95.33;99093.61;4018553;86;21083;-84
2022/10/14 16:19:47;;;;;;;50.67;30.80;;;;;;;12.88;96.21;99098.21;4022121;86;21040;-84
2022/10/14 16:25:49;;;;;;;52.38;32.65;;;;;;;12.77;96.46;99103.67;4060375;87;21035;-84
2022/10/14 16:31:53;;;;;;;56.23;32.15;;;;;;;12.69;96.88;99110.30;4027443;87;21587;-84
2022/10/14 16:37:55;;;;;;;53.87;34.33;;;;;;;12.57;96.97;99119.66;4008820;87;21060;-84
2022/10/14 16:43:57;;;;;;;80.90;51.20;;;;;;;12.38;97.05;99119.17;4006352;87;21511;-84
2022/10/14 16:49:58;;;;;;;59.55;38.23;;;;;;;12.19;97.45;99120.81;4046378;87;21015;-85
2022/10/14 16:56:00;;;;;;;56.88;37.10;;;;;;;12.04;97.81;99118.55;4024352;87;21019;-84
2022/10/14 17:02:03;;;;;;;58.30;40.50;;;;;;;11.93;98.43;99122.40;4019335;87;21083;-84
2022/10/14 17:08:05;;;;;;;63.13;39.38;;;;;;;11.88;98.76;99122.17;4006302;87;21097;-84
2022/10/14 17:14:08;;;;;;;55.73;35.65;;;;;;;11.82;99.17;99129.18;3969022;87;21582;-83
2022/10/14 17:20:10;;;;;;;65.57;37.95;;;;;;;11.78;99.66;99129.72;4003729;87;21020;-84
2022/10/14 17:26:17;;;;;;;67.03;40.88;;;;;;;11.77;100.00;99128.16;4022047;86;21087;-84
2022/10/14 17:32:18;;;;;;;63.68;38.25;;;;;;;11.77;100.00;99128.73;4040141;87;21025;-84
2022/10/14 17:38:19;;;;;;;63.42;38.60;;;;;;;11.76;100.00;99119.70;4040363;85;21067;-84
2022/10/14 17:44:21;;;;;;;66.02;39.40;;;;;;;11.74;100.00;99131.66;3978760;87;21460;-84
2022/10/14 17:50:23;;;;;;;66.85;40.00;;;;;;;11.61;100.00;99125.41;4043407;86;21111;-85
2022/10/14 17:56:26;;;;;;;90.30;49.85;;;;;;;11.50;100.00;99130.81;4039092;87;21080;-84
2022/10/14 18:02:29;;;;;;;86.35;50.88;;;;;;;11.47;100.00;99128.03;3914815;85;9999581;-85
2022/10/14 18:08:30;;;;;;;71.45;44.50;;;;;;;11.49;100.00;99131.19;4060529;87;21084;-85
2022/10/14 18:14:32;;;;;;;82.00;47.30;;;;;;;11.49;100.00;99129.25;4085395;87;21011;-84
2022/10/14 18:20:36;;;;;;;73.25;42.65;;;;;;;11.52;100.00;99121.63;4027345;85;21030;-84
2022/10/14 18:26:39;;;;;;;96.28;53.95;;;;;;;11.53;100.00;99115.55;3975334;87;21147;-85
2022/10/14 18:32:41;;;;;;;90.65;49.88;;;;;;;11.42;100.00;99116.83;3988140;87;21020;-84
2022/10/14 18:38:51;;;;;;;95.10;56.70;;;;;;;11.35;100.00;99112.66;3965905;87;21059;-84
2022/10/14 18:44:52;;;;;;;100.60;53.50;;;;;;;11.35;100.00;99109.92;4008443;87;22023;-84
2022/10/14 18:50:59;;;;;;;105.40;59.03;;;;;;;11.34;100.00;99115.18;4029878;87;21030;-84
2022/10/14 18:57:01;;;;;;;110.57;65.87;;;;;;;11.33;100.00;99114.98;4005705;87;21445;-84
2022/10/14 19:03:02;;;;;;;116.08;65.70;;;;;;;11.31;100.00;99111.83;3971291;87;21079;-84
2022/10/14 19:09:18;;;;;;;99.05;56.02;;;;;;;11.26;100.00;99113.53;4028883;87;21047;-84
2022/10/14 19:15:24;;;;;;;98.72;58.63;;;;;;;11.18;100.00;99117.38;4052689;87;21035;-84
2022/10/14 19:21:28;;;;;;;98.52;59.15;;;;;;;11.18;100.00;99118.75;4000154;87;21091;-84
2022/10/14 19:27:27;;;;;;;100.67;58.65;;;;;;;11.19;100.00;99122.27;4035747;85;21027;-84
2022/10/14 19:33:29;;;;;;;94.42;55.25;;;;;;;11.19;100.00;99120.89;4035615;87;21069;-84
2022/10/14 19:39:31;;;;;;;93.47;56.55;;;;;;;11.21;100.00;99118.00;4023653;87;21918;-84
2022/10/14 19:45:32;;;;;;;93.20;56.50;;;;;;;11.23;100.00;99110.17;4019411;87;21005;-84
2022/10/14 19:51:34;;;;;;;95.47;56.08;;;;;;;11.25;100.00;99108.42;4015889;87;21059;-84
2022/10/14 19:57:36;;;;;;;74.32;45.70;;;;;;;11.26;100.00;99103.17;4026185;87;21516;-84
2022/10/14 20:03:38;;;;;;;76.15;45.75;;;;;;;11.27;100.00;99104.16;4074151;87;21043;-84
2022/10/14 20:09:39;;;;;;;70.42;44.48;;;;;;;11.31;100.00;99104.97;4040056;87;21854;-84
2022/10/14 20:15:41;;;;;;;68.17;42.67;;;;;;;11.36;100.00;99102.47;4005280;87;21007;-84
2022/10/14 20:21:42;;;;;;;75.80;44.70;;;;;;;11.34;100.00;99106.19;4021191;87;21080;-84
2022/10/14 20:27:44;;;;;;;53.95;35.95;;;;;;;11.28;100.00;99101.62;4064448;86;22071;-84
2022/10/14 20:33:45;;;;;;;58.60;39.33;;;;;;;11.26;100.00;99101.80;4062152;87;21007;-84
2022/10/14 20:39:47;;;;;;;57.25;36.98;;;;;;;11.20;100.00;99096.46;4027625;87;21095;-84
2022/10/14 20:45:48;;;;;;;55.75;34.08;;;;;;;11.19;100.00;99097.60;4022298;87;21116;-84
2022/10/14 20:51:49;;;;;;;58.45;37.40;;;;;;;11.20;100.00;99096.46;4032025;87;21911;-84
2022/10/14 20:57:51;;;;;;;58.87;36.48;;;;;;;11.24;100.00;99097.27;4043105;87;22100;-84
2022/10/14 21:03:54;;;;;;;60.52;36.45;;;;;;;11.24;100.00;99091.22;3928422;86;9999916;-84
2022/10/14 21:09:56;;;;;;;52.27;31.52;;;;;;;11.23;100.00;99084.14;4036526;87;21048;-84
2022/10/14 21:15:57;;;;;;;47.80;31.35;;;;;;;11.22;100.00;99079.04;4048256;87;21006;-84
2022/10/14 21:21:59;;;;;;;49.08;30.23;;;;;;;11.20;100.00;99073.17;4064057;87;21563;-85
2022/10/14 21:28:00;;;;;;;45.45;30.40;;;;;;;11.18;100.00;99079.03;4061364;87;21099;-84
2022/10/14 21:34:04;;;;;;;46.20;30.02;;;;;;;11.12;100.00;99075.62;4023270;87;21043;-84
2022/10/14 21:40:06;;;;;;;44.38;30.37;;;;;;;11.12;100.00;99072.89;4044055;87;21035;-84
2022/10/14 21:46:14;;;;;;;45.15;29.10;;;;;;;11.15;100.00;99064.69;4031534;87;21143;-86
2022/10/14 21:52:17;;;;;;;45.98;30.30;;;;;;;11.17;100.00;99050.03;4042737;87;21171;-83
2022/10/14 21:58:19;;;;;;;41.77;29.25;;;;;;;11.17;100.00;99051.98;4041391;87;21152;-84
2022/10/14 22:04:20;;;;;;;46.20;28.92;;;;;;;11.13;100.00;99051.97;4042318;85;21008;-84
2022/10/14 22:10:39;;;;;;;55.35;33.73;;;;;;;11.10;100.00;99047.23;4030309;87;21046;-85
2022/10/14 22:16:41;;;;;;;46.45;28.25;;;;;;;11.10;100.00;99048.61;4028922;86;21616;-84
2022/10/14 22:22:42;;;;;;;53.92;32.40;;;;;;;11.09;100.00;99049.75;4037137;87;21089;-85
2022/10/14 22:28:44;;;;;;;54.58;35.43;;;;;;;11.07;100.00;99050.73;3999767;88;21100;-84
2022/10/14 22:34:51;;;;;;;60.15;36.35;;;;;;;11.06;100.00;99047.20;3991540;88;21511;-85
2022/10/14 22:40:53;;;;;;;69.85;42.45;;;;;;;11.08;100.00;99037.23;4030146;88;21475;-84
2022/10/14 22:46:54;;;;;;;65.65;43.10;;;;;;;11.09;100.00;99033.31;3997425;88;21675;-84
2022/10/14 22:52:56;;;;;;;67.12;41.88;;;;;;;11.04;100.00;99041.88;4005502;87;21515;-84
2022/10/14 22:59:03;;;;;;;70.70;42.93;;;;;;;10.95;100.00;99038.09;4006286;87;21084;-84
2022/10/14 23:05:05;;;;;;;;;;;;;;;10.89;100.00;99034.12;3990283;87;21510;-84
2022/10/14 23:11:11;;;;;;;68.28;40.03;;;;;;;10.76;100.00;99043.74;4003656;87;20196;-84
2022/10/14 23:17:12;;;;;;;65.32;38.28;;;;;;;10.65;100.00;99046.14;4013676;87;21571;-84
2022/10/14 23:23:13;;;;;;;54.27;35.80;;;;;;;10.54;100.00;99043.89;4014987;87;21055;-84
2022/10/14 23:29:15;;;;;;;52.25;32.05;;;;;;;10.38;100.00;99037.22;4028041;87;21489;-84
2022/10/14 23:35:16;;;;;;;51.88;34.35;;;;;;;10.25;100.00;99041.37;4034798;87;21554;-85
2022/10/14 23:41:20;;;;;;;54.73;32.03;;;;;;;10.12;100.00;99035.92;3938705;89;21173;-84
2022/10/14 23:47:22;;;;;;;50.85;33.95;;;;;;;9.95;100.00;99035.64;4026172;86;21076;-84
2022/10/14 23:53:27;;;;;;;58.52;34.78;;;;;;;9.83;100.00;99031.19;4068584;87;21082;-84
2022/10/14 23:59:28;;;;;;;47.78;31.95;;;;;;;9.76;100.00;99028.91;4026182;86;21013;-84
